createdAt,value
2022-09-02T00:00:45.773Z,21.37
2022-09-02T00:03:12.548Z,21.36
2022-09-02T00:05:39.172Z,21.35
2022-09-02T00:08:05.817Z,21.34
2022-09-02T00:10:33.208Z,21.31
2022-09-02T00:12:59.717Z,21.29
2022-09-02T00:15:27.784Z,21.29
2022-09-02T00:17:54.429Z,21.29
2022-09-02T00:20:21.579Z,21.28
2022-09-02T00:22:48.058Z,21.28
2022-09-02T00:25:14.811Z,21.26
2022-09-02T00:27:41.301Z,21.26
2022-09-02T00:30:08.086Z,21.26
2022-09-02T00:32:34.585Z,21.23
2022-09-02T00:35:01.987Z,21.23
2022-09-02T00:37:28.621Z,21.23
2022-09-02T00:39:55.176Z,21.21
2022-09-02T00:42:21.962Z,21.22
2022-09-02T00:44:48.834Z,21.20
2022-09-02T00:47:18.059Z,21.19
2022-09-02T00:49:47.703Z,21.20
2022-09-02T00:52:17.443Z,21.18
2022-09-02T00:54:50.073Z,21.17
2022-09-02T00:57:19.528Z,21.17
2022-09-02T01:00:13.899Z,21.17
2022-09-02T01:02:41.225Z,21.16
2022-09-02T01:05:10.751Z,21.13
2022-09-02T01:07:38.607Z,21.10
2022-09-02T01:10:07.218Z,21.11
2022-09-02T01:12:35.587Z,21.09
2022-09-02T01:15:02.980Z,21.09
2022-09-02T01:17:29.546Z,21.09
2022-09-02T01:20:00.498Z,21.08
2022-09-02T01:22:30.061Z,21.08
2022-09-02T01:24:57.464Z,21.06
2022-09-02T01:27:23.956Z,21.05
2022-09-02T01:29:52.106Z,21.04
2022-09-02T01:32:18.597Z,21.02
2022-09-02T01:34:45.109Z,21.01
2022-09-02T01:37:11.614Z,21.01
2022-09-02T01:39:38.790Z,21.00
2022-09-02T01:42:05.373Z,21.01
2022-09-02T01:44:32.542Z,21.01
2022-09-02T01:46:59.078Z,21.00
2022-09-02T01:49:25.627Z,20.99
2022-09-02T01:51:54.607Z,20.98
2022-09-02T01:54:22.792Z,20.96
2022-09-02T01:56:49.459Z,20.97
2022-09-02T01:59:18.011Z,20.97
2022-09-02T02:01:45.257Z,20.96
2022-09-02T02:04:13.524Z,20.93
2022-09-02T02:06:42.631Z,20.93
2022-09-02T02:09:09.615Z,20.92
2022-09-02T02:11:36.228Z,20.90
2022-09-02T02:14:03.063Z,20.90
2022-09-02T02:16:29.729Z,20.89
2022-09-02T02:18:56.247Z,20.87
2022-09-02T02:21:22.740Z,20.87
2022-09-02T02:23:49.759Z,20.87
2022-09-02T02:26:16.262Z,20.86
2022-09-02T02:28:43.055Z,20.86
2022-09-02T02:31:09.654Z,20.87
2022-09-02T02:33:36.575Z,20.85
2022-09-02T02:36:04.958Z,20.84
2022-09-02T02:38:32.612Z,20.84
2022-09-02T02:41:00.330Z,20.82
2022-09-02T02:43:26.813Z,20.83
2022-09-02T02:45:54.288Z,20.81
2022-09-02T02:48:21.631Z,20.83
2022-09-02T02:50:48.147Z,20.81
2022-09-02T02:53:14.977Z,20.82
2022-09-02T02:55:41.588Z,20.81
2022-09-02T02:58:08.370Z,20.79
2022-09-02T03:00:35.462Z,20.79
2022-09-02T03:03:05.035Z,20.79
2022-09-02T03:05:31.709Z,20.76
2022-09-02T03:07:58.268Z,20.79
2022-09-02T03:10:25.471Z,20.78
2022-09-02T03:12:52.477Z,20.78
2022-09-02T03:15:19.362Z,20.76
2022-09-02T03:17:46.647Z,20.76
2022-09-02T03:20:13.177Z,20.72
2022-09-02T03:22:40.124Z,20.74
2022-09-02T03:25:07.421Z,20.72
2022-09-02T03:27:34.551Z,20.71
2022-09-02T03:30:01.431Z,20.71
2022-09-02T03:32:30.529Z,20.71
2022-09-02T03:34:57.210Z,20.68
2022-09-02T03:37:23.972Z,20.69
2022-09-02T03:39:50.474Z,20.68
2022-09-02T03:42:19.290Z,20.68
2022-09-02T03:44:46.523Z,20.66
2022-09-02T03:47:15.084Z,20.66
2022-09-02T03:49:41.580Z,20.66
2022-09-02T03:52:10.783Z,20.64
2022-09-02T03:54:37.279Z,20.66
2022-09-02T03:57:03.899Z,20.64
2022-09-02T03:59:30.758Z,20.61
2022-09-02T04:01:57.328Z,20.59
2022-09-02T04:04:24.187Z,20.62
2022-09-02T04:06:50.684Z,20.61
2022-09-02T04:09:17.418Z,20.63
2022-09-02T04:11:44.385Z,20.61
2022-09-02T04:14:11.305Z,20.59
2022-09-02T04:16:37.820Z,20.59
2022-09-02T04:19:05.387Z,20.59
2022-09-02T04:21:33.495Z,20.60
2022-09-02T04:24:00.033Z,20.60
2022-09-02T04:26:26.890Z,20.62
2022-09-02T04:28:54.175Z,20.67
2022-09-02T04:31:21.220Z,20.64
2022-09-02T04:33:48.600Z,20.63
2022-09-02T04:36:15.974Z,20.61
2022-09-02T04:38:42.593Z,20.57
2022-09-02T04:41:10.835Z,20.57
2022-09-02T04:43:37.394Z,20.55
2022-09-02T04:46:08.016Z,20.53
2022-09-02T04:48:36.702Z,20.50
2022-09-02T04:51:08.414Z,20.51
2022-09-02T04:53:35.742Z,20.51
2022-09-02T04:56:06.672Z,20.52
2022-09-02T04:58:33.646Z,20.55
2022-09-02T05:01:00.156Z,20.58
2022-09-02T05:03:28.110Z,20.58
2022-09-02T05:06:01.627Z,20.61
2022-09-02T05:08:28.120Z,20.66
2022-09-02T05:10:54.624Z,20.77
2022-09-02T05:13:21.159Z,20.76
2022-09-02T05:15:47.701Z,20.69
2022-09-02T05:18:14.246Z,20.68
2022-09-02T05:20:42.995Z,20.70
2022-09-02T05:23:11.451Z,20.71
2022-09-02T05:25:40.995Z,20.76
2022-09-02T05:28:08.898Z,20.77
2022-09-02T05:30:39.752Z,20.83
2022-09-02T05:33:06.596Z,20.85
2022-09-02T05:35:33.435Z,20.88
2022-09-02T05:38:01.299Z,20.91
2022-09-02T05:40:28.786Z,20.92
2022-09-02T05:42:55.809Z,20.95
2022-09-02T05:45:23.755Z,20.98
2022-09-02T05:47:50.574Z,21.01
2022-09-02T05:50:17.219Z,21.02
2022-09-02T05:52:43.783Z,21.08
2022-09-02T05:55:10.321Z,21.10
2022-09-02T05:57:37.057Z,21.13
2022-09-02T06:00:07.851Z,21.17
2022-09-02T06:02:34.476Z,21.23
2022-09-02T06:05:01.022Z,21.29
2022-09-02T06:07:27.555Z,21.32
2022-09-02T06:09:55.285Z,21.35
2022-09-02T06:12:21.902Z,21.38
2022-09-02T06:14:48.567Z,21.43
2022-09-02T06:17:15.328Z,21.43
2022-09-02T06:19:41.877Z,21.45
2022-09-02T06:22:09.567Z,21.44
2022-09-02T06:24:38.060Z,21.47
2022-09-02T06:27:04.716Z,21.49
2022-09-02T06:29:31.589Z,21.49
2022-09-02T06:31:58.812Z,21.53
2022-09-02T06:34:27.090Z,21.54
2022-09-02T06:36:53.571Z,21.56
2022-09-02T06:39:21.030Z,21.60
2022-09-02T06:41:48.961Z,21.54
2022-09-02T06:44:16.161Z,21.62
2022-09-02T06:46:44.679Z,21.65
2022-09-02T06:49:11.491Z,21.69
2022-09-02T06:51:43.261Z,21.74
2022-09-02T06:54:10.995Z,21.77
2022-09-02T06:56:40.951Z,21.78
2022-09-02T06:59:07.816Z,21.36
2022-09-02T07:01:34.542Z,21.14
2022-09-02T07:04:19.598Z,21.09
2022-09-02T07:06:48.788Z,21.11
2022-09-02T07:09:17.095Z,21.12
2022-09-02T07:11:47.706Z,21.13
2022-09-02T07:14:15.590Z,20.85
2022-09-02T07:16:47.844Z,21.01
2022-09-02T07:19:19.896Z,20.95
2022-09-02T07:21:47.968Z,21.01
2022-09-02T07:24:14.559Z,20.99
2022-09-02T07:26:41.173Z,21.11
2022-09-02T07:29:08.756Z,21.13
2022-09-02T07:31:39.619Z,21.15
2022-09-02T07:34:07.169Z,21.21
2022-09-02T07:36:35.024Z,21.17
2022-09-02T07:39:01.862Z,21.17
2022-09-02T07:41:28.362Z,21.22
2022-09-02T07:43:59.408Z,21.34
2022-09-02T07:46:26.556Z,21.32
2022-09-02T07:48:53.725Z,21.33
2022-09-02T07:51:20.247Z,21.36
2022-09-02T07:53:46.778Z,21.30
2022-09-02T07:56:13.650Z,21.46
2022-09-02T07:58:42.091Z,21.41
2022-09-02T08:01:09.177Z,21.36
2022-09-02T08:03:37.175Z,21.52
2022-09-02T08:06:04.066Z,21.49
2022-09-02T08:08:30.753Z,21.69
2022-09-02T08:10:57.450Z,21.75
2022-09-02T08:13:27.332Z,21.84
2022-09-02T08:15:54.478Z,21.86
2022-09-02T08:18:22.344Z,21.87
2022-09-02T08:20:49.304Z,21.82
2022-09-02T08:23:35.462Z,21.84
2022-09-02T08:26:02.599Z,21.87
2022-09-02T08:28:29.421Z,21.90
2022-09-02T08:30:58.856Z,21.91
2022-09-02T08:33:25.512Z,21.96
2022-09-02T08:35:52.016Z,21.98
2022-09-02T08:38:18.563Z,21.99
2022-09-02T08:40:45.204Z,22.02
2022-09-02T08:43:40.267Z,22.05
2022-09-02T08:46:08.515Z,22.05
2022-09-02T08:48:34.919Z,22.11
2022-09-02T08:51:05.792Z,22.11
2022-09-02T08:53:52.580Z,22.13
2022-09-02T08:56:19.222Z,22.15
2022-09-02T08:58:48.902Z,22.18
2022-09-02T09:01:25.549Z,22.19
2022-09-02T09:04:10.551Z,22.20
2022-09-02T09:06:55.242Z,22.23
2022-09-02T09:09:46.306Z,22.23
2022-09-02T09:12:52.380Z,22.26
2022-09-02T09:15:21.692Z,22.29
2022-09-02T09:17:58.250Z,22.29
2022-09-02T09:20:26.364Z,22.28
2022-09-02T09:22:58.694Z,22.36
2022-09-02T09:25:30.031Z,22.35
2022-09-02T09:27:59.830Z,22.37
2022-09-02T09:30:26.430Z,22.37
2022-09-02T09:32:55.850Z,22.36
2022-09-02T09:35:22.380Z,22.35
2022-09-02T09:37:52.354Z,22.38
2022-09-02T09:40:18.790Z,22.38
2022-09-02T09:42:49.587Z,22.39
2022-09-02T09:45:22.176Z,22.42
2022-09-02T09:48:07.579Z,22.44
2022-09-02T09:50:34.141Z,22.45
2022-09-02T09:53:28.725Z,22.46
2022-09-02T09:56:21.115Z,22.48
2022-09-02T09:58:49.720Z,22.49
2022-09-02T10:01:20.273Z,22.55
2022-09-02T10:03:52.488Z,22.57
2022-09-02T10:06:43.091Z,22.54
2022-09-02T10:09:15.191Z,22.56
2022-09-02T10:12:02.164Z,22.48
2022-09-02T10:14:37.335Z,22.19
2022-09-02T10:17:15.491Z,22.26
2022-09-02T10:20:04.856Z,22.58
2022-09-02T10:22:59.039Z,22.63
2022-09-02T10:25:47.830Z,22.45
2022-09-02T10:28:36.095Z,22.55
2022-09-02T10:31:11.744Z,22.59
2022-09-02T10:33:47.554Z,22.37
2022-09-02T10:36:36.229Z,22.43
2022-09-02T10:39:28.065Z,22.29
2022-09-02T10:41:55.698Z,22.40
2022-09-02T10:44:44.858Z,22.24
2022-09-02T10:47:23.307Z,22.28
2022-09-02T10:50:26.141Z,22.28
2022-09-02T10:53:16.829Z,22.26
2022-09-02T10:56:01.636Z,22.22
2022-09-02T10:58:39.481Z,22.54
2022-09-02T11:01:07.187Z,22.57
2022-09-02T11:04:24.244Z,22.34
2022-09-02T11:07:02.498Z,22.38
2022-09-02T11:09:40.540Z,22.38
2022-09-02T11:12:22.826Z,22.41
2022-09-02T11:15:18.907Z,22.40
2022-09-02T11:18:24.383Z,22.13
2022-09-02T11:20:57.347Z,22.21
2022-09-02T11:23:45.169Z,22.20
2022-09-02T11:26:25.133Z,22.19
2022-09-02T11:28:59.803Z,22.22
2022-09-02T11:31:50.011Z,22.18
2022-09-02T11:34:20.992Z,22.17
2022-09-02T11:36:48.254Z,22.01
2022-09-02T11:39:30.544Z,22.06
2022-09-02T11:42:37.362Z,22.18
2022-09-02T11:45:32.675Z,21.94
2022-09-02T11:47:59.036Z,22.09
2022-09-02T11:50:39.531Z,22.14
2022-09-02T11:53:25.395Z,22.18
2022-09-02T11:55:57.652Z,22.18
2022-09-02T11:58:52.458Z,22.14
2022-09-02T12:01:25.752Z,22.22
2022-09-02T12:04:56.066Z,22.08
2022-09-02T12:07:08.270Z,22.03
2022-09-02T12:09:49.176Z,22.11
2022-09-02T12:12:37.611Z,22.26
2022-09-02T12:15:04.899Z,22.26
2022-09-02T12:17:44.803Z,22.02
2022-09-02T12:20:32.403Z,22.13
2022-09-02T12:23:00.392Z,22.16
2022-09-02T12:25:27.432Z,22.19
2022-09-02T12:28:21.611Z,22.23
2022-09-02T12:31:02.123Z,22.24
2022-09-02T12:33:35.897Z,22.26
2022-09-02T12:36:04.852Z,22.27
2022-09-02T12:38:32.971Z,22.31
2022-09-02T12:41:05.969Z,22.31
2022-09-02T12:43:52.154Z,22.32
2022-09-02T12:47:12.843Z,22.31
2022-09-02T12:49:41.443Z,22.32
2022-09-02T12:52:12.149Z,22.32
2022-09-02T12:54:38.731Z,22.34
2022-09-02T12:57:06.158Z,22.36
2022-09-02T12:59:34.126Z,22.34
2022-09-02T13:02:24.614Z,22.33
2022-09-02T13:04:55.856Z,22.34
2022-09-02T13:07:50.114Z,22.33
2022-09-02T13:10:54.395Z,22.32
2022-09-02T13:13:33.052Z,22.30
2022-09-02T13:16:15.469Z,22.31
2022-09-02T13:19:04.137Z,22.31
2022-09-02T13:22:08.438Z,22.25
2022-09-02T13:25:00.251Z,22.30
2022-09-02T13:27:57.865Z,22.28
2022-09-02T13:30:27.324Z,22.29
2022-09-02T13:33:04.326Z,22.31
2022-09-02T13:35:30.811Z,22.32
2022-09-02T13:38:00.293Z,22.33
2022-09-02T13:40:33.740Z,22.34
2022-09-02T13:43:01.618Z,22.34
2022-09-02T13:45:29.654Z,22.35
2022-09-02T13:48:00.362Z,22.35
2022-09-02T13:50:29.916Z,22.35
2022-09-02T13:55:54.989Z,22.36
2022-09-02T13:58:30.906Z,22.35
2022-09-02T14:01:01.937Z,22.34
2022-09-02T14:03:29.197Z,22.34
2022-09-02T14:05:56.371Z,22.32
2022-09-02T14:08:23.819Z,22.32
2022-09-02T14:10:52.715Z,22.32
2022-09-02T14:13:19.228Z,22.33
2022-09-02T14:15:45.766Z,22.31
2022-09-02T14:18:14.549Z,22.33
2022-09-02T14:20:57.885Z,22.31
2022-09-02T14:23:24.839Z,22.34
2022-09-02T14:25:58.335Z,22.31
2022-09-02T14:28:26.752Z,22.32
2022-09-02T14:30:58.691Z,22.31
2022-09-02T14:33:36.864Z,22.30
2022-09-02T14:36:11.798Z,22.31
2022-09-02T14:38:46.984Z,22.31
2022-09-02T14:41:17.887Z,22.33
2022-09-02T14:43:53.254Z,22.32
2022-09-02T14:46:25.862Z,22.34
2022-09-02T14:49:13.074Z,22.34
2022-09-02T14:51:43.859Z,22.35
2022-09-02T14:54:11.204Z,22.35
2022-09-02T14:57:32.993Z,22.33
2022-09-02T15:00:14.969Z,22.38
2022-09-02T15:02:42.930Z,22.38
2022-09-02T15:05:11.602Z,22.34
2022-09-02T15:07:38.147Z,22.32
2022-09-02T15:10:09.400Z,22.30
2022-09-02T15:12:48.143Z,22.30
2022-09-02T15:15:14.699Z,22.32
2022-09-02T15:17:41.179Z,22.32
2022-09-02T15:20:08.775Z,22.33
2022-09-02T15:22:38.409Z,22.31
2022-09-02T15:25:07.908Z,22.30
2022-09-02T15:27:34.824Z,22.30
2022-09-02T15:30:01.405Z,22.29
2022-09-02T15:32:28.625Z,22.28
2022-09-02T15:34:55.417Z,22.28
2022-09-02T15:37:22.171Z,22.31
2022-09-02T15:39:50.382Z,22.31
2022-09-02T15:42:18.271Z,22.31
2022-09-02T15:44:46.659Z,22.33
2022-09-02T15:47:13.150Z,22.32
2022-09-02T15:49:39.631Z,22.31
2022-09-02T15:52:06.153Z,22.32
2022-09-02T15:54:32.735Z,22.28
2022-09-02T15:56:59.603Z,22.25
2022-09-02T15:59:26.443Z,22.23
2022-09-02T16:01:55.415Z,22.21
2022-09-02T16:04:22.196Z,22.19
2022-09-02T16:06:49.783Z,22.19
2022-09-02T16:09:17.111Z,22.19
2022-09-02T16:11:48.101Z,22.18
2022-09-02T16:14:14.982Z,22.19
2022-09-02T16:16:47.447Z,22.19
2022-09-02T16:19:13.999Z,22.17
2022-09-02T16:21:41.172Z,22.16
2022-09-02T16:24:08.494Z,22.16
2022-09-02T16:26:39.031Z,22.15
2022-09-02T16:29:07.115Z,22.17
2022-09-02T16:31:35.148Z,22.17
2022-09-02T16:34:06.401Z,22.18
2022-09-02T16:36:34.991Z,22.18
2022-09-02T16:39:02.030Z,22.18
2022-09-02T16:41:34.617Z,22.19
2022-09-02T16:44:06.236Z,22.16
2022-09-02T16:46:32.919Z,22.13
2022-09-02T16:48:59.397Z,22.12
2022-09-02T16:51:26.124Z,22.11
2022-09-02T16:53:57.219Z,22.10
2022-09-02T16:56:24.165Z,22.10
2022-09-02T16:58:52.466Z,22.09
2022-09-02T17:01:19.319Z,22.09
2022-09-02T17:03:46.544Z,22.09
2022-09-02T17:06:13.555Z,22.08
2022-09-02T17:08:42.130Z,22.07
2022-09-02T17:11:34.306Z,22.06
2022-09-02T17:14:05.218Z,22.04
2022-09-02T17:16:33.350Z,22.03
2022-09-02T17:18:59.862Z,22.02
2022-09-02T17:21:41.529Z,22.03
2022-09-02T17:24:08.247Z,22.03
2022-09-02T17:26:35.760Z,22.02
2022-09-02T17:29:07.929Z,22.02
2022-09-02T17:31:34.441Z,22.01
2022-09-02T17:34:01.931Z,22.00
2022-09-02T17:36:29.166Z,22.00
2022-09-02T17:38:56.981Z,21.99
2022-09-02T17:41:43.227Z,21.98
2022-09-02T17:44:09.821Z,21.98
2022-09-02T17:46:36.332Z,21.95
2022-09-02T17:49:18.146Z,21.93
2022-09-02T17:51:44.837Z,21.93
2022-09-02T17:54:11.320Z,21.93
2022-09-02T17:57:02.693Z,21.91
2022-09-02T17:59:53.442Z,21.92
2022-09-02T18:02:28.896Z,21.93
2022-09-02T18:04:59.265Z,21.92
2022-09-02T18:07:34.894Z,21.91
2022-09-02T18:10:01.392Z,21.91
2022-09-02T18:12:27.901Z,21.92
2022-09-02T18:15:04.675Z,21.89
2022-09-02T18:17:35.757Z,21.86
2022-09-02T18:20:26.947Z,21.87
2022-09-02T18:23:18.192Z,21.86
2022-09-02T18:26:17.761Z,21.82
2022-09-02T18:28:44.154Z,21.83
2022-09-02T18:31:40.685Z,21.81
2022-09-02T18:34:25.004Z,21.83
2022-09-02T18:36:57.470Z,21.88
2022-09-02T18:39:43.712Z,21.88
2022-09-02T18:42:31.929Z,21.87
2022-09-02T18:45:16.333Z,21.88
2022-09-02T18:48:06.784Z,21.81
2022-09-02T18:50:49.978Z,21.76
2022-09-02T18:53:27.187Z,21.84
2022-09-02T18:55:53.830Z,21.77
2022-09-02T18:58:39.473Z,21.78
2022-09-02T19:01:23.496Z,21.78
2022-09-02T19:03:50.333Z,21.76
2022-09-02T19:06:19.859Z,21.80
2022-09-02T19:08:46.433Z,21.78
2022-09-02T19:11:16.491Z,21.78
2022-09-02T19:13:49.729Z,21.74
2022-09-02T19:16:20.763Z,21.77
2022-09-02T19:18:48.083Z,21.82
2022-09-02T19:21:29.114Z,21.82
2022-09-02T19:23:55.595Z,21.83
2022-09-02T19:26:22.115Z,21.65
2022-09-02T19:28:48.843Z,21.69
2022-09-02T19:31:19.684Z,21.71
2022-09-02T19:33:46.721Z,21.69
2022-09-02T19:36:13.253Z,21.67
2022-09-02T19:38:41.011Z,21.70
2022-09-02T19:41:07.911Z,21.71
2022-09-02T19:43:35.617Z,21.66
2022-09-02T19:46:02.151Z,21.64
2022-09-02T19:48:28.690Z,21.61
2022-09-02T19:50:55.196Z,21.58
2022-09-02T19:53:30.773Z,21.60
2022-09-02T19:56:02.346Z,21.58
2022-09-02T19:58:28.867Z,21.62
2022-09-02T20:00:56.083Z,21.60
2022-09-02T20:03:22.690Z,21.56
2022-09-02T20:05:49.577Z,21.54
2022-09-02T20:08:16.897Z,21.53
2022-09-02T20:10:44.755Z,21.54
2022-09-02T20:13:13.741Z,21.54
2022-09-02T20:15:40.225Z,21.56
2022-09-02T20:18:14.781Z,21.52
2022-09-02T20:20:43.018Z,21.50
2022-09-02T20:23:11.891Z,21.53
2022-09-02T20:26:12.714Z,21.50
2022-09-02T20:28:57.513Z,21.51
2022-09-02T20:31:43.414Z,21.49
2022-09-02T20:34:27.278Z,21.50
2022-09-02T20:36:58.901Z,21.51
2022-09-02T20:39:53.106Z,21.48
2022-09-02T20:42:57.354Z,21.48
2022-09-02T20:45:28.622Z,21.44
2022-09-02T20:48:02.034Z,21.44
2022-09-02T20:50:47.972Z,21.43
2022-09-02T20:54:00.761Z,21.40
2022-09-02T20:57:05.158Z,21.39
2022-09-02T20:59:53.534Z,21.39
2022-09-02T21:02:21.160Z,21.37
2022-09-02T21:04:51.346Z,21.36
2022-09-02T21:07:26.364Z,21.35
2022-09-02T21:10:06.510Z,21.38
2022-09-02T21:12:37.299Z,21.33
2022-09-02T21:15:24.549Z,21.28
2022-09-02T21:17:53.425Z,21.34
2022-09-02T21:20:22.989Z,21.34
2022-09-02T21:22:53.285Z,21.33
2022-09-02T21:25:32.757Z,21.34
2022-09-02T21:28:06.223Z,21.33
2022-09-02T21:30:36.684Z,21.33
2022-09-02T21:33:05.158Z,21.31
2022-09-02T21:35:38.782Z,21.31
2022-09-02T21:38:33.533Z,21.30
2022-09-02T21:41:09.432Z,21.30
2022-09-02T21:44:02.398Z,21.26
2022-09-02T21:46:58.246Z,21.23
2022-09-02T21:49:56.579Z,21.25
2022-09-02T21:53:03.672Z,21.24
2022-09-02T21:55:48.652Z,21.22
2022-09-02T21:58:47.490Z,21.22
2022-09-02T22:01:26.555Z,21.21
2022-09-02T22:03:56.688Z,21.18
2022-09-02T22:06:28.859Z,21.18
2022-09-02T22:08:58.552Z,21.19
2022-09-02T22:11:36.794Z,21.18
2022-09-02T22:14:30.705Z,21.18
2022-09-02T22:17:01.808Z,21.23
2022-09-02T22:19:31.069Z,21.21
2022-09-02T22:22:07.669Z,21.17
2022-09-02T22:24:37.210Z,21.17
2022-09-02T22:27:16.457Z,21.18
2022-09-02T22:30:02.356Z,21.18
2022-09-02T22:32:31.753Z,21.21
2022-09-02T22:35:27.930Z,21.21
2022-09-02T22:38:03.411Z,21.19
2022-09-02T22:40:34.303Z,21.17
2022-09-02T22:43:04.854Z,21.18
2022-09-02T22:45:53.017Z,21.17
2022-09-02T22:48:43.757Z,21.16
2022-09-02T22:51:32.930Z,21.17
2022-09-02T22:53:59.411Z,21.17
2022-09-02T22:56:55.783Z,21.15
2022-09-02T22:59:53.222Z,21.15
2022-09-02T23:02:36.856Z,21.14
2022-09-02T23:05:06.877Z,21.13
2022-09-02T23:07:33.405Z,21.15
2022-09-02T23:10:00.579Z,21.12
2022-09-02T23:12:44.774Z,21.13
2022-09-02T23:15:32.945Z,21.14
2022-09-02T23:18:17.154Z,21.14
2022-09-02T23:20:50.660Z,21.13
2022-09-02T23:23:31.312Z,21.12
2022-09-02T23:26:09.738Z,21.11
2022-09-02T23:29:00.702Z,21.12
2022-09-02T23:31:45.105Z,21.10
2022-09-02T23:34:24.701Z,21.08
2022-09-02T23:36:57.583Z,21.09
2022-09-02T23:39:44.062Z,21.07
2022-09-02T23:42:11.764Z,21.07
2022-09-02T23:44:38.552Z,21.05
2022-09-02T23:47:19.400Z,21.07
2022-09-02T23:50:05.307Z,21.04
2022-09-02T23:52:42.911Z,21.04
2022-09-02T23:55:20.366Z,21.02
2022-09-02T23:58:12.517Z,21.02
